Time;durP1;ratioP1;P1;durP2;ratioP2;P2;SDS_P1;SDS_P2;PMS_P1;PMS_P2;Temp;Humidity;BMP_temperature;BMP_pressure;BME280_temperature;BME280_humidity;BME280_pressure;Samples;Min_cycle;Max_cycle;Signal;HPM_P1;HPM_P2
2023/07/06 00:01:48;;;;;;;3.60;2.73;;;15.70;99.90;;;;;;5091064;28;20247;-68
2023/07/06 00:04:14;;;;;;;4.03;2.67;;;15.70;99.90;;;;;;5087560;28;20397;-69
2023/07/06 00:06:40;;;;;;;2.83;2.53;;;15.70;99.90;;;;;;5083957;28;20507;-69
2023/07/06 00:09:06;;;;;;;2.43;2.10;;;15.70;99.90;;;;;;5084648;28;20817;-67
2023/07/06 00:11:37;;;;;;;3.77;1.90;;;15.60;99.90;;;;;;5080075;28;20432;-68
2023/07/06 00:14:07;;;;;;;9.53;3.40;;;15.60;99.90;;;;;;5088496;28;20201;-69
2023/07/06 00:16:41;;;;;;;3.37;2.93;;;15.60;99.90;;;;;;5087829;28;20454;-68
2023/07/06 00:19:09;;;;;;;3.60;2.43;;;15.60;99.90;;;;;;5090269;28;20788;-67
2023/07/06 00:21:34;;;;;;;2.60;2.20;;;15.60;99.90;;;;;;5086514;28;20427;-67
2023/07/06 00:24:00;;;;;;;3.37;2.63;;;15.50;99.90;;;;;;5069641;28;20424;-68
2023/07/06 00:26:26;;;;;;;3.10;2.80;;;15.50;99.90;;;;;;5086277;28;20518;-69
2023/07/06 00:28:53;;;;;;;3.77;2.80;;;15.60;99.90;;;;;;5088293;28;20424;-68
2023/07/06 00:31:21;;;;;;;3.67;3.27;;;15.50;99.90;;;;;;5086137;28;20444;-70
2023/07/06 00:33:52;;;;;;;4.23;2.70;;;15.50;99.90;;;;;;5087357;28;20773;-68
2023/07/06 00:36:17;;;;;;;6.43;2.57;;;15.40;99.90;;;;;;5086378;28;20403;-69
2023/07/06 00:38:44;;;;;;;4.20;2.50;;;15.40;99.90;;;;;;5090832;28;20416;-70
2023/07/06 00:41:10;;;;;;;3.93;2.50;;;15.60;99.90;;;;;;5088735;28;20690;-70
2023/07/06 00:43:54;;;;;;;3.10;2.80;;;15.50;99.90;;;;;;5092045;28;20616;-68
2023/07/06 00:46:23;;;;;;;7.20;2.93;;;15.40;99.90;;;;;;5068624;28;20836;-68
2023/07/06 00:48:51;;;;;;;4.17;3.00;;;15.40;99.90;;;;;;5090745;28;20410;-68
2023/07/06 00:51:19;;;;;;;3.03;2.70;;;15.40;99.90;;;;;;5093458;28;20451;-69
2023/07/06 00:53:48;;;;;;;3.47;2.33;;;15.40;99.90;;;;;;5089587;28;20910;-69
2023/07/06 00:56:17;;;;;;;5.47;3.37;;;15.30;99.90;;;;;;5092186;28;20408;-68
2023/07/06 00:58:46;;;;;;;3.83;2.23;;;15.30;99.90;;;;;;5088707;28;20837;-68
2023/07/06 01:01:15;;;;;;;4.73;2.40;;;15.20;99.90;;;;;;5091101;28;20456;-69
2023/07/06 01:03:48;;;;;;;5.53;2.73;;;15.20;99.90;;;;;;5094182;28;20404;-68
2023/07/06 01:06:20;;;;;;;7.40;2.93;;;15.20;99.90;;;;;;5089712;28;20913;-68
2023/07/06 01:08:50;;;;;;;4.67;3.80;;;15.30;99.90;;;;;;5093800;28;20936;-69
2023/07/06 01:11:16;;;;;;;3.10;2.67;;;15.20;99.90;;;;;;5087825;28;20785;-68
2023/07/06 01:13:49;;;;;;;4.07;2.70;;;15.10;99.90;;;;;;5094289;28;20428;-68
2023/07/06 01:16:39;;;;;;;3.37;3.07;;;15.00;99.90;;;;;;5088551;28;20547;-69
2023/07/06 01:19:37;;;;;;;2.70;2.20;;;15.00;99.90;;;;;;5089892;28;20564;-69
2023/07/06 01:22:13;;;;;;;4.27;2.57;;;15.10;99.90;;;;;;5095923;28;20822;-73
2023/07/06 01:25:00;;;;;;;4.73;2.47;;;15.20;99.90;;;;;;5100162;28;20484;-68
2023/07/06 01:28:00;;;;;;;4.10;2.90;;;15.10;99.90;;;;;;5091313;28;20491;-68
2023/07/06 01:30:45;;;;;;;3.83;3.00;;;15.00;99.90;;;;;;5082094;28;20452;-68
2023/07/06 01:33:16;;;;;;;4.40;3.40;;;14.90;99.90;;;;;;5094958;28;20408;-69
2023/07/06 01:35:44;;;;;;;7.67;3.27;;;14.90;99.90;;;;;;5097991;28;20403;-67
2023/07/06 01:38:11;;;;;;;3.50;2.60;;;14.90;99.90;;;;;;5084683;28;20419;-69
2023/07/06 01:40:37;;;;;;;4.17;2.70;;;15.00;99.90;;;;;;5092085;28;20954;-69
2023/07/06 01:43:02;;;;;;;3.10;2.27;;;15.00;99.90;;;;;;5091280;28;20423;-68
2023/07/06 01:45:30;;;;;;;2.43;2.20;;;15.00;99.90;;;;;;5088572;28;20224;-70
2023/07/06 01:48:00;;;;;;;4.60;2.90;;;15.10;99.90;;;;;;5091737;28;20166;-68
2023/07/06 01:50:49;;;;;;;5.30;2.90;;;15.00;99.90;;;;;;5090918;28;20942;-69
2023/07/06 01:53:31;;;;;;;3.60;2.50;;;14.90;99.90;;;;;;5083540;28;20902;-68
2023/07/06 01:56:12;;;;;;;2.67;2.33;;;14.90;99.90;;;;;;5089312;28;20396;-69
2023/07/06 01:58:45;;;;;;;3.90;3.07;;;15.00;99.90;;;;;;5099447;28;20735;-68
2023/07/06 02:01:16;;;;;;;4.23;2.87;;;14.90;99.90;;;;;;5084602;28;20416;-69
2023/07/06 02:03:42;;;;;;;5.63;2.30;;;15.00;99.90;;;;;;5097344;28;20400;-69
2023/07/06 02:06:11;;;;;;;5.40;3.00;;;14.90;99.90;;;;;;5090692;28;20399;-69
2023/07/06 02:08:41;;;;;;;3.40;3.10;;;14.90;99.90;;;;;;5095343;28;20161;-68
2023/07/06 02:11:08;;;;;;;5.40;3.00;;;15.00;99.90;;;;;;5102456;28;20454;-69
2023/07/06 02:13:34;;;;;;;4.90;2.70;;;15.00;99.90;;;;;;5093813;28;20806;-69
2023/07/06 02:16:03;;;;;;;4.60;2.67;;;15.00;99.90;;;;;;5092392;28;20416;-69
2023/07/06 02:18:28;;;;;;;4.33;3.00;;;15.10;99.90;;;;;;5087588;28;20170;-69
2023/07/06 02:20:54;;;;;;;3.70;3.10;;;15.00;99.90;;;;;;5090286;28;20431;-68
2023/07/06 02:23:19;;;;;;;4.83;2.77;;;15.10;99.90;;;;;;5087400;28;20215;-69
2023/07/06 02:25:45;;;;;;;4.73;3.00;;;15.30;99.90;;;;;;5090192;28;20166;-69
2023/07/06 02:28:11;;;;;;;4.40;3.00;;;15.20;99.90;;;;;;5098967;28;20674;-68
2023/07/06 02:30:37;;;;;;;4.10;2.50;;;15.30;99.90;;;;;;5090946;28;20199;-69
2023/07/06 02:33:03;;;;;;;6.20;3.07;;;15.30;99.90;;;;;;5096060;28;20184;-69
2023/07/06 02:35:29;;;;;;;4.33;3.03;;;15.40;99.90;;;;;;5089585;28;20495;-70
2023/07/06 02:37:54;;;;;;;4.77;2.93;;;15.30;99.90;;;;;;5094794;28;20174;-69
2023/07/06 02:40:20;;;;;;;5.70;3.50;;;15.30;99.90;;;;;;5085622;28;20390;-69
2023/07/06 02:42:46;;;;;;;4.63;2.50;;;15.20;99.90;;;;;;5088278;28;20597;-69
2023/07/06 02:45:11;;;;;;;3.70;3.30;;;15.10;99.90;;;;;;5091803;28;20630;-68
2023/07/06 02:47:38;;;;;;;8.93;3.63;;;15.10;99.90;;;;;;5087286;28;20219;-68
2023/07/06 02:50:11;;;;;;;3.30;2.60;;;15.00;99.90;;;;;;5089506;28;20212;-68
2023/07/06 02:52:37;;;;;;;7.13;3.20;;;15.00;99.90;;;;;;5088966;28;20430;-69
2023/07/06 02:55:04;;;;;;;3.43;3.00;;;15.00;99.90;;;;;;5087782;28;20408;-69
2023/07/06 02:57:31;;;;;;;4.10;2.90;;;15.00;99.90;;;;;;5091643;28;20460;-68
2023/07/06 02:59:57;;;;;;;4.20;3.50;;;15.00;99.90;;;;;;5090959;28;20412;-68
2023/07/06 03:02:23;;;;;;;4.83;3.67;;;15.00;99.90;;;;;;5090790;28;20764;-67
2023/07/06 03:04:49;;;;;;;5.13;2.77;;;15.00;99.90;;;;;;5086489;28;20176;-69
2023/07/06 03:07:15;;;;;;;3.57;2.70;;;15.00;99.90;;;;;;5062539;28;20224;-68
2023/07/06 03:09:42;;;;;;;3.97;2.90;;;14.90;99.90;;;;;;5085856;28;20456;-69
2023/07/06 03:12:09;;;;;;;4.00;2.70;;;14.90;99.90;;;;;;5092528;28;20182;-68
2023/07/06 03:14:34;;;;;;;6.57;4.10;;;14.80;99.90;;;;;;5091392;28;20884;-72
2023/07/06 03:17:00;;;;;;;6.83;2.90;;;14.80;99.90;;;;;;5085717;28;20404;-69
2023/07/06 03:19:26;;;;;;;3.53;3.20;;;14.80;99.90;;;;;;5091138;28;20588;-68
2023/07/06 03:21:52;;;;;;;6.10;3.43;;;14.80;99.90;;;;;;5089683;28;20195;-68
2023/07/06 03:24:18;;;;;;;3.77;3.47;;;14.80;99.90;;;;;;5088840;28;20170;-68
2023/07/06 03:26:44;;;;;;;6.13;3.10;;;14.80;99.90;;;;;;5089715;28;20410;-70
2023/07/06 03:29:12;;;;;;;4.50;2.77;;;14.80;99.90;;;;;;5088411;28;20231;-69
2023/07/06 03:31:37;;;;;;;4.27;3.50;;;14.80;99.90;;;;;;5091045;28;20448;-69
2023/07/06 03:34:06;;;;;;;4.13;3.63;;;14.80;99.90;;;;;;5091129;28;20499;-69
2023/07/06 03:36:33;;;;;;;4.00;3.10;;;14.90;99.90;;;;;;5088417;28;20170;-67
2023/07/06 03:39:00;;;;;;;3.50;3.17;;;14.90;99.90;;;;;;5102143;28;20762;-73
2023/07/06 03:41:26;;;;;;;5.47;2.67;;;15.00;99.90;;;;;;5088610;28;20923;-69
2023/07/06 03:43:56;;;;;;;4.30;3.00;;;15.00;99.90;;;;;;5095989;28;20460;-68
2023/07/06 03:46:23;;;;;;;5.30;3.03;;;15.00;99.90;;;;;;5086460;28;20163;-68
2023/07/06 03:48:49;;;;;;;3.57;3.17;;;15.00;99.90;;;;;;5093934;28;20411;-68
2023/07/06 03:51:15;;;;;;;4.50;3.20;;;15.10;99.90;;;;;;5087562;28;20428;-68
2023/07/06 03:53:40;;;;;;;6.50;3.40;;;15.10;99.90;;;;;;5085380;28;20172;-69
2023/07/06 03:56:07;;;;;;;6.07;3.97;;;15.10;99.90;;;;;;5097813;28;20172;-68
2023/07/06 03:58:33;;;;;;;4.20;3.00;;;15.20;99.90;;;;;;5088290;28;20178;-68
2023/07/06 04:00:59;;;;;;;6.30;4.20;;;15.20;99.90;;;;;;5096314;28;20885;-68
2023/07/06 04:03:26;;;;;;;4.03;3.23;;;15.30;99.90;;;;;;5085937;28;20428;-67
2023/07/06 04:05:52;;;;;;;2.60;2.40;;;15.30;99.90;;;;;;5090900;28;20165;-68
2023/07/06 04:08:21;;;;;;;4.83;3.13;;;15.40;99.90;;;;;;5086701;28;20459;-69
2023/07/06 04:10:48;;;;;;;3.73;3.07;;;15.40;99.90;;;;;;5085514;28;20840;-68
2023/07/06 04:13:14;;;;;;;5.80;2.97;;;15.50;99.90;;;;;;5097383;28;20411;-69
2023/07/06 04:15:44;;;;;;;4.97;3.80;;;15.50;99.90;;;;;;5086451;28;20418;-69
2023/07/06 04:18:10;;;;;;;4.47;2.80;;;15.60;99.90;;;;;;5096058;28;20395;-68
2023/07/06 04:20:37;;;;;;;5.13;2.73;;;15.70;99.90;;;;;;5086861;28;20917;-67
2023/07/06 04:23:03;;;;;;;3.50;3.13;;;15.90;99.90;;;;;;5090291;28;20408;-68
2023/07/06 04:25:31;;;;;;;2.90;2.40;;;16.80;99.90;;;;;;5090078;28;20421;-68
2023/07/06 04:27:59;;;;;;;3.40;2.63;;;17.70;99.90;;;;;;5097421;28;20415;-69
2023/07/06 04:30:25;;;;;;;3.13;2.67;;;18.40;99.90;;;;;;5085525;28;20453;-69
2023/07/06 04:32:51;;;;;;;3.97;2.80;;;19.10;99.90;;;;;;5094692;28;20709;-69
2023/07/06 04:35:22;;;;;;;4.57;2.37;;;19.20;99.90;;;;;;5079109;28;20411;-69
2023/07/06 04:37:49;;;;;;;5.93;2.47;;;19.50;99.90;;;;;;5087223;28;20918;-68
2023/07/06 04:40:20;;;;;;;3.03;2.73;;;19.70;99.90;;;;;;5097350;28;20403;-69
2023/07/06 04:42:48;;;;;;;3.80;2.90;;;20.00;99.90;;;;;;5086449;28;20413;-67
2023/07/06 04:45:15;;;;;;;3.70;2.50;;;19.80;99.90;;;;;;5095803;28;20416;-68
2023/07/06 04:47:44;;;;;;;2.40;2.17;;;19.60;99.90;;;;;;5089067;28;20484;-69
2023/07/06 04:50:22;;;;;;;2.43;2.23;;;19.70;99.90;;;;;;5087741;28;20989;-68
2023/07/06 04:52:51;;;;;;;5.53;2.60;;;19.50;99.90;;;;;;5084472;28;20491;-68
2023/07/06 04:55:22;;;;;;;5.50;2.47;;;19.40;99.90;;;;;;5095089;28;20405;-68
2023/07/06 04:57:50;;;;;;;3.80;3.00;;;18.90;99.90;;;;;;5096160;28;21002;-68
2023/07/06 05:00:18;;;;;;;3.47;2.50;;;18.80;99.90;;;;;;5084561;28;20502;-68
2023/07/06 05:02:46;;;;;;;3.30;2.67;;;19.00;99.90;;;;;;5091483;28;20517;-68
2023/07/06 05:05:12;;;;;;;7.07;3.13;;;19.40;99.90;;;;;;5086608;28;20411;-69
2023/07/06 05:07:39;;;;;;;9.23;2.47;;;19.40;99.90;;;;;;5090243;28;20411;-68
2023/07/06 05:10:05;;;;;;;4.27;3.13;;;18.90;99.90;;;;;;5085886;28;20447;-67
2023/07/06 05:12:31;;;;;;;3.43;2.50;;;18.90;99.90;;;;;;5098597;28;20425;-68
2023/07/06 05:14:57;;;;;;;4.90;2.83;;;19.70;99.90;;;;;;5094022;28;20487;-68
2023/07/06 05:17:22;;;;;;;4.23;2.80;;;19.90;99.90;;;;;;5090368;28;20519;-68
2023/07/06 05:19:48;;;;;;;3.23;2.47;;;20.00;99.90;;;;;;5090694;28;20199;-68
2023/07/06 05:22:18;;;;;;;4.43;2.80;;;20.40;99.90;;;;;;5086427;28;20215;-69
2023/07/06 05:24:44;;;;;;;3.23;2.30;;;21.00;99.90;;;;;;5094826;28;20245;-69
2023/07/06 05:27:09;;;;;;;4.37;2.07;;;20.60;99.90;;;;;;5092284;28;20463;-68
2023/07/06 05:29:35;;;;;;;5.23;2.10;;;19.80;99.90;;;;;;5089399;28;20451;-69
2023/07/06 05:32:01;;;;;;;4.23;3.00;;;19.50;99.90;;;;;;5097245;28;20692;-68
2023/07/06 05:34:26;;;;;;;4.33;2.30;;;19.80;99.90;;;;;;5069910;28;20253;-68
2023/07/06 05:36:52;;;;;;;3.20;2.20;;;20.30;99.90;;;;;;5094698;28;20179;-69
2023/07/06 05:39:17;;;;;;;6.30;2.87;;;20.70;99.90;;;;;;5092685;28;20180;-69
2023/07/06 05:41:43;;;;;;;5.60;2.20;;;20.40;99.90;;;;;;5092570;28;20195;-68
2023/07/06 05:44:09;;;;;;;3.63;2.40;;;20.80;99.90;;;;;;5099925;28;20176;-68
2023/07/06 05:46:35;;;;;;;2.90;2.23;;;20.90;99.90;;;;;;5089584;28;20636;-69
2023/07/06 05:49:00;;;;;;;2.33;2.03;;;21.50;99.90;;;;;;5096851;28;20414;-68
2023/07/06 05:51:26;;;;;;;2.50;2.30;;;21.60;99.90;;;;;;5093485;28;20198;-73
2023/07/06 05:53:51;;;;;;;3.13;2.00;;;21.60;99.90;;;;;;5090798;28;20252;-70
2023/07/06 05:56:18;;;;;;;2.43;2.23;;;22.10;99.90;;;;;;5093987;28;20208;-72
2023/07/06 05:58:44;;;;;;;4.40;2.77;;;22.00;99.90;;;;;;5091698;28;20246;-70
2023/07/06 06:01:11;;;;;;;3.57;2.70;;;21.40;99.90;;;;;;5073410;28;20447;-71
2023/07/06 06:03:37;;;;;;;3.23;1.93;;;20.70;99.90;;;;;;5094189;28;20438;-69
2023/07/06 06:06:03;;;;;;;6.30;2.40;;;21.50;99.90;;;;;;5099252;28;20512;-69
2023/07/06 06:08:28;;;;;;;6.10;2.10;;;21.00;99.90;;;;;;5085975;28;20460;-69
2023/07/06 06:10:55;;;;;;;1.80;1.70;;;22.40;99.90;;;;;;5097337;28;20679;-70
2023/07/06 06:13:21;;;;;;;3.57;2.00;;;22.90;99.90;;;;;;5096727;28;20169;-69
2023/07/06 06:15:47;;;;;;;3.53;2.00;;;22.60;99.90;;;;;;5092081;28;20433;-69
2023/07/06 06:18:13;;;;;;;2.70;1.67;;;22.70;99.90;;;;;;5091021;28;20560;-69
2023/07/06 06:20:41;;;;;;;2.50;1.90;;;23.10;99.90;;;;;;5094852;28;20483;-69
2023/07/06 06:23:07;;;;;;;3.77;2.70;;;24.40;99.90;;;;;;5091164;28;20415;-70
2023/07/06 06:25:34;;;;;;;3.67;2.27;;;24.70;99.90;;;;;;5091851;28;20484;-68
2023/07/06 06:27:59;;;;;;;4.90;2.40;;;23.70;99.90;;;;;;5091532;28;20565;-69
2023/07/06 06:30:25;;;;;;;2.87;2.10;;;23.90;99.90;;;;;;5090823;28;20789;-69
2023/07/06 06:32:51;;;;;;;2.73;1.50;;;22.90;99.90;;;;;;5089353;28;20415;-70
2023/07/06 06:35:21;;;;;;;3.20;2.30;;;24.30;99.90;;;;;;5083546;28;20170;-68
2023/07/06 06:37:47;;;;;;;3.23;1.80;;;22.90;99.90;;;;;;5093139;28;20174;-68
2023/07/06 06:40:14;;;;;;;2.40;1.87;;;24.20;99.90;;;;;;5088515;28;20412;-69
2023/07/06 06:42:40;;;;;;;2.77;2.20;;;24.00;99.90;;;;;;5086789;28;20518;-70
2023/07/06 06:45:07;;;;;;;3.47;2.17;;;24.40;99.90;;;;;;5089906;28;20502;-69
2023/07/06 06:47:32;;;;;;;2.40;1.63;;;22.70;99.90;;;;;;5086869;28;20515;-69
2023/07/06 06:49:58;;;;;;;2.60;1.80;;;23.50;99.90;;;;;;5095697;28;20481;-71
2023/07/06 06:52:26;;;;;;;2.93;1.60;;;23.70;99.90;;;;;;5088912;28;20225;-69
2023/07/06 06:54:52;;;;;;;3.20;1.80;;;24.00;99.90;;;;;;5069950;28;20407;-70
2023/07/06 06:57:20;;;;;;;2.97;2.10;;;24.10;99.90;;;;;;5101064;28;20400;-70
2023/07/06 06:59:47;;;;;;;2.90;1.73;;;24.00;99.90;;;;;;5069567;28;20430;-70
2023/07/06 07:02:16;;;;;;;3.30;2.03;;;24.60;99.90;;;;;;5098431;28;20441;-70
2023/07/06 07:04:42;;;;;;;4.20;2.70;;;24.30;99.90;;;;;;5090233;28;20419;-70
2023/07/06 07:07:08;;;;;;;3.13;1.80;;;24.20;99.90;;;;;;5091324;28;20426;-70
2023/07/06 07:09:33;;;;;;;1.90;1.80;;;25.00;99.90;;;;;;5093444;28;20287;-71
2023/07/06 07:12:00;;;;;;;2.77;2.00;;;24.50;99.80;;;;;;5093904;28;20277;-69
2023/07/06 07:14:26;;;;;;;2.70;1.67;;;23.80;99.10;;;;;;5074682;28;20178;-70
2023/07/06 07:16:52;;;;;;;1.50;1.40;;;23.50;98.50;;;;;;5090705;28;20532;-70
2023/07/06 07:19:19;;;;;;;4.47;4.10;;;23.60;97.30;;;;;;5089562;28;20419;-70
2023/07/06 07:21:44;;;;;;;2.27;1.30;;;24.00;98.30;;;;;;5094548;28;20189;-69
2023/07/06 07:24:11;;;;;;;3.90;3.30;;;24.80;97.00;;;;;;5094499;28;20415;-68
2023/07/06 07:26:37;;;;;;;2.00;1.53;;;25.70;97.30;;;;;;5089507;28;20226;-70
2023/07/06 07:29:03;;;;;;;3.53;1.70;;;25.60;95.90;;;;;;5090226;28;20416;-69
2023/07/06 07:31:29;;;;;;;2.80;1.53;;;25.80;95.60;;;;;;5085606;28;21013;-70
2023/07/06 07:33:55;;;;;;;4.17;1.70;;;26.60;94.80;;;;;;5082537;28;20412;-70
2023/07/06 07:36:21;;;;;;;4.27;2.33;;;25.30;94.40;;;;;;5094727;28;20639;-69
2023/07/06 07:38:48;;;;;;;3.30;2.87;;;25.10;96.70;;;;;;5102329;28;20256;-70
2023/07/06 07:41:19;;;;;;;4.83;4.27;;;26.00;95.80;;;;;;5090545;28;20560;-70
2023/07/06 07:43:46;;;;;;;14.60;2.10;;;26.20;95.10;;;;;;5092503;28;20499;-70
2023/07/06 07:46:14;;;;;;;3.30;2.80;;;26.50;93.30;;;;;;5087908;28;20473;-70
2023/07/06 07:48:45;;;;;;;3.67;3.17;;;26.80;94.20;;;;;;5086667;28;20819;-70
2023/07/06 07:51:16;;;;;;;2.10;1.90;;;26.90;94.00;;;;;;5087599;28;20918;-69
2023/07/06 07:53:44;;;;;;;5.60;2.07;;;26.50;94.60;;;;;;5085178;28;20396;-69
2023/07/06 07:56:12;;;;;;;2.43;2.03;;;25.70;94.70;;;;;;5097372;28;20437;-69
2023/07/06 07:58:39;;;;;;;2.37;1.30;;;25.60;94.60;;;;;;5089056;28;20465;-69
2023/07/06 08:01:07;;;;;;;2.93;1.37;;;26.40;94.10;;;;;;5090489;28;20442;-69
2023/07/06 08:03:35;;;;;;;2.90;1.80;;;26.20;93.10;;;;;;5085179;28;20542;-70
2023/07/06 08:06:04;;;;;;;2.13;1.20;;;26.50;92.70;;;;;;5087661;28;20415;-70
2023/07/06 08:08:32;;;;;;;2.00;1.73;;;26.10;92.40;;;;;;5085204;28;20915;-69
2023/07/06 08:11:02;;;;;;;5.93;1.97;;;25.20;94.20;;;;;;5089201;28;21010;-72
2023/07/06 08:13:29;;;;;;;2.37;1.57;;;25.50;93.90;;;;;;5083372;28;20412;-69
2023/07/06 08:15:55;;;;;;;2.00;1.60;;;24.30;95.30;;;;;;5087988;28;20487;-70
2023/07/06 08:18:22;;;;;;;3.23;2.10;;;24.10;95.80;;;;;;5088360;28;20480;-69
2023/07/06 08:20:53;;;;;;;7.37;5.83;;;24.60;94.90;;;;;;5089345;28;20461;-69
2023/07/06 08:23:19;;;;;;;3.40;1.80;;;25.40;94.50;;;;;;5081798;28;20498;-68
2023/07/06 08:25:46;;;;;;;3.70;2.00;;;24.70;94.10;;;;;;5089668;28;20798;-69
2023/07/06 08:28:12;;;;;;;3.10;1.80;;;24.30;94.80;;;;;;5095456;28;20490;-69
2023/07/06 08:30:40;;;;;;;2.73;2.23;;;25.20;95.50;;;;;;5085226;28;20893;-68
2023/07/06 08:33:09;;;;;;;1.90;1.73;;;25.10;94.10;;;;;;5087932;28;20407;-68
2023/07/06 08:35:42;;;;;;;2.10;1.80;;;24.00;95.60;;;;;;5086895;28;20416;-68
2023/07/06 08:38:08;;;;;;;2.67;1.60;;;24.90;95.20;;;;;;5087906;28;20411;-69
2023/07/06 08:40:35;;;;;;;8.43;2.20;;;24.00;94.70;;;;;;5097792;28;20435;-69
2023/07/06 08:43:04;;;;;;;2.20;2.00;;;24.60;96.00;;;;;;5089316;28;20412;-69
2023/07/06 08:45:43;;;;;;;2.20;1.30;;;25.50;95.80;;;;;;5085158;28;20415;-70
2023/07/06 08:48:14;;;;;;;1.87;1.73;;;25.20;94.10;;;;;;5082696;28;20521;-70
2023/07/06 08:50:44;;;;;;;1.90;1.57;;;24.80;93.80;;;;;;5094359;28;20505;-69
2023/07/06 08:53:14;;;;;;;3.40;2.10;;;24.50;96.50;;;;;;5090070;28;20444;-69
2023/07/06 08:55:41;;;;;;;3.00;2.03;;;25.50;95.60;;;;;;5091833;28;20399;-71
2023/07/06 08:58:12;;;;;;;3.63;1.77;;;26.20;94.20;;;;;;5076453;28;21045;-68
2023/07/06 09:00:39;;;;;;;5.00;1.57;;;25.30;93.00;;;;;;5091018;28;20427;-69
2023/07/06 09:03:09;;;;;;;1.40;1.20;;;26.40;94.10;;;;;;5092925;28;20411;-70
2023/07/06 09:05:41;;;;;;;1.63;1.53;;;26.40;92.00;;;;;;5092499;28;20893;-69
2023/07/06 09:08:13;;;;;;;2.77;1.67;;;24.00;94.80;;;;;;5091015;28;20553;-70
2023/07/06 09:10:38;;;;;;;3.33;1.63;;;23.70;95.70;;;;;;5087432;28;20467;-69
2023/07/06 09:13:27;;;;;;;6.13;1.50;;;23.80;95.40;;;;;;5093173;28;20933;-69
2023/07/06 09:16:00;;;;;;;2.17;1.83;;;24.20;96.50;;;;;;5091676;28;20166;-69
2023/07/06 09:18:28;;;;;;;1.73;1.43;;;25.00;94.00;;;;;;5098676;28;20499;-68
2023/07/06 09:20:56;;;;;;;2.07;1.87;;;24.70;94.50;;;;;;5088101;28;20929;-69
2023/07/06 09:23:22;;;;;;;2.50;1.70;;;24.40;95.50;;;;;;5097018;28;20423;-69
2023/07/06 09:25:48;;;;;;;9.03;1.80;;;25.10;95.30;;;;;;5097790;28;20430;-68
2023/07/06 09:28:18;;;;;;;3.20;2.23;;;24.90;95.10;;;;;;5092525;28;20621;-69
2023/07/06 09:30:44;;;;;;;3.33;1.50;;;25.60;95.00;;;;;;5091598;28;20458;-70
2023/07/06 09:33:19;;;;;;;2.03;1.47;;;25.80;94.60;;;;;;5090960;28;20415;-69
2023/07/06 09:35:48;;;;;;;1.30;1.20;;;26.20;94.50;;;;;;5090067;28;20434;-70
2023/07/06 09:38:15;;;;;;;1.90;1.60;;;26.00;93.90;;;;;;5091758;28;20414;-70
2023/07/06 09:40:43;;;;;;;2.60;2.40;;;26.60;94.70;;;;;;5097823;28;20997;-69
2023/07/06 09:43:24;;;;;;;1.43;1.20;;;26.60;91.70;;;;;;5087505;28;20536;-69
2023/07/06 09:45:51;;;;;;;2.67;1.60;;;25.70;92.80;;;;;;5092977;28;20415;-70
2023/07/06 09:48:32;;;;;;;1.77;1.57;;;25.80;94.00;;;;;;5085853;28;20420;-69
2023/07/06 09:51:12;;;;;;;2.00;1.40;;;26.20;93.30;;;;;;5083574;28;20473;-69
2023/07/06 09:54:06;;;;;;;1.80;1.60;;;26.80;93.30;;;;;;5090113;28;20418;-70
2023/07/06 09:56:32;;;;;;;2.10;1.60;;;27.70;91.70;;;;;;5085281;28;20477;-69
2023/07/06 09:59:00;;;;;;;1.97;1.77;;;27.60;91.80;;;;;;5095010;28;20414;-70
2023/07/06 10:01:44;;;;;;;2.60;2.00;;;27.00;91.80;;;;;;5097867;28;20295;-69
2023/07/06 10:04:34;;;;;;;1.87;1.70;;;26.60;91.40;;;;;;5090022;28;20989;-69
2023/07/06 10:07:19;;;;;;;2.37;1.90;;;25.50;91.80;;;;;;5095357;28;20415;-70
2023/07/06 10:10:30;;;;;;;2.60;1.70;;;26.00;92.10;;;;;;5089514;28;20915;-68
2023/07/06 10:13:13;;;;;;;2.30;1.50;;;25.20;92.40;;;;;;5096842;28;20537;-69
2023/07/06 10:15:50;;;;;;;5.00;1.80;;;25.20;94.10;;;;;;5089843;28;20486;-69
2023/07/06 10:18:25;;;;;;;2.07;1.87;;;24.10;93.80;;;;;;5097569;28;20495;-69
2023/07/06 10:21:14;;;;;;;2.03;1.83;;;24.70;93.20;;;;;;5088029;28;20517;-70
2023/07/06 10:23:51;;;;;;;3.00;1.70;;;24.30;93.60;;;;;;5093351;28;20438;-70
2023/07/06 10:26:29;;;;;;;1.70;1.30;;;23.70;94.50;;;;;;5089089;28;20410;-70
2023/07/06 10:29:03;;;;;;;3.13;1.50;;;23.80;94.70;;;;;;5095129;28;20442;-69
2023/07/06 10:31:39;;;;;;;1.50;1.40;;;23.60;95.90;;;;;;5096102;28;20465;-70
2023/07/06 10:34:16;;;;;;;1.93;1.70;;;23.60;94.50;;;;;;5091848;28;20507;-70
2023/07/06 10:36:42;;;;;;;3.53;1.80;;;23.40;95.00;;;;;;5086457;28;20405;-70
2023/07/06 10:39:25;;;;;;;3.03;1.83;;;23.70;95.90;;;;;;5090662;28;20415;-69
2023/07/06 10:42:00;;;;;;;2.17;1.97;;;23.90;95.50;;;;;;5091698;28;20816;-69
2023/07/06 10:44:43;;;;;;;2.30;1.73;;;24.50;95.20;;;;;;5083678;28;20561;-69
2023/07/06 10:47:28;;;;;;;1.83;1.73;;;24.00;94.40;;;;;;5067037;28;20517;-69
2023/07/06 10:50:19;;;;;;;2.00;1.50;;;23.90;94.30;;;;;;5094758;28;20446;-70
2023/07/06 10:52:58;;;;;;;1.63;1.30;;;23.90;94.60;;;;;;5088054;28;20736;-68
2023/07/06 10:55:29;;;;;;;3.80;1.90;;;23.80;94.90;;;;;;5087880;28;20403;-68
2023/07/06 10:58:04;;;;;;;2.50;2.17;;;23.90;94.30;;;;;;5090685;28;20393;-70
2023/07/06 11:00:35;;;;;;;4.27;2.13;;;24.00;94.20;;;;;;5091702;28;20399;-69
2023/07/06 11:03:02;;;;;;;3.77;1.70;;;24.30;95.00;;;;;;5090533;28;20972;-68
2023/07/06 11:05:30;;;;;;;6.33;5.33;;;24.40;94.90;;;;;;5088517;28;20407;-68
2023/07/06 11:07:59;;;;;;;1.87;1.70;;;24.20;94.00;;;;;;5089764;28;20491;-69
2023/07/06 11:10:35;;;;;;;7.70;6.50;;;23.60;92.90;;;;;;5084368;28;20455;-68
2023/07/06 11:13:01;;;;;;;3.30;2.13;;;23.50;94.40;;;;;;5092774;28;20411;-69
2023/07/06 11:15:36;;;;;;;4.37;1.80;;;23.80;94.00;;;;;;5088345;28;20933;-69
2023/07/06 11:18:27;;;;;;;1.70;1.47;;;23.20;94.30;;;;;;5088603;28;20416;-69
2023/07/06 11:20:56;;;;;;;2.37;1.80;;;22.80;95.30;;;;;;5085212;28;20434;-68
2023/07/06 11:23:36;;;;;;;2.60;1.50;;;22.70;95.20;;;;;;5094243;28;20419;-68
2023/07/06 11:26:13;;;;;;;3.90;2.83;;;23.20;95.70;;;;;;5089202;28;20414;-68
2023/07/06 11:28:40;;;;;;;4.40;3.57;;;23.40;95.10;;;;;;5089922;28;20540;-69
2023/07/06 11:31:31;;;;;;;2.50;2.10;;;23.40;94.60;;;;;;5084491;28;20464;-69
2023/07/06 11:34:19;;;;;;;4.80;4.23;;;23.70;94.30;;;;;;5086743;28;20930;-69
2023/07/06 11:37:16;;;;;;;4.00;1.93;;;23.50;94.20;;;;;;5089263;28;20430;-68
2023/07/06 11:39:50;;;;;;;2.00;1.57;;;23.20;94.00;;;;;;5093140;28;20408;-68
2023/07/06 11:42:31;;;;;;;2.60;1.90;;;23.20;94.40;;;;;;5086059;28;20946;-69
2023/07/06 11:45:05;;;;;;;1.63;1.40;;;23.40;95.80;;;;;;5085819;28;20504;-69
2023/07/06 11:47:46;;;;;;;4.23;3.53;;;23.70;94.20;;;;;;5085705;28;20413;-70
2023/07/06 11:50:19;;;;;;;1.90;1.70;;;23.70;95.20;;;;;;5093926;28;20614;-69
2023/07/06 11:52:58;;;;;;;2.23;1.70;;;23.60;95.20;;;;;;5084626;28;20408;-69
2023/07/06 11:55:32;;;;;;;1.90;1.70;;;23.40;94.80;;;;;;5091702;28;20410;-69
2023/07/06 11:58:28;;;;;;;2.23;1.83;;;23.00;95.20;;;;;;5095124;28;20550;-69
2023/07/06 12:00:56;;;;;;;2.80;2.00;;;22.90;96.00;;;;;;5092213;28;20488;-68
2023/07/06 12:03:29;;;;;;;4.67;2.77;;;23.00;95.70;;;;;;5088475;28;20404;-68
2023/07/06 12:05:58;;;;;;;3.07;2.67;;;23.00;95.90;;;;;;5087139;28;20446;-69
2023/07/06 12:08:27;;;;;;;1.90;1.67;;;23.30;95.30;;;;;;5085575;28;20865;-68
2023/07/06 12:10:57;;;;;;;2.20;1.90;;;23.10;94.80;;;;;;5094079;28;20490;-69
2023/07/06 12:13:33;;;;;;;1.83;1.73;;;23.00;94.80;;;;;;5097855;28;20873;-68
2023/07/06 12:16:08;;;;;;;3.50;3.20;;;23.30;95.00;;;;;;5085729;28;20723;-70
2023/07/06 12:18:34;;;;;;;2.50;2.23;;;23.30;95.50;;;;;;5095343;28;20412;-69
2023/07/06 12:21:01;;;;;;;3.27;2.03;;;23.50;95.30;;;;;;5085100;28;20443;-70
2023/07/06 12:23:27;;;;;;;5.23;2.57;;;23.80;94.50;;;;;;5093724;28;20703;-68
2023/07/06 12:25:54;;;;;;;1.80;1.70;;;24.10;94.10;;;;;;5089608;28;20423;-68
2023/07/06 12:28:20;;;;;;;3.57;3.20;;;24.10;93.90;;;;;;5089861;28;20177;-69
2023/07/06 12:30:49;;;;;;;4.70;2.13;;;24.40;93.80;;;;;;5086768;28;20509;-69
2023/07/06 12:33:16;;;;;;;2.50;2.20;;;24.80;92.30;;;;;;5091936;28;20167;-69
2023/07/06 12:35:43;;;;;;;1.90;1.80;;;24.30;93.50;;;;;;5091192;28;20409;-68
2023/07/06 12:38:19;;;;;;;3.40;3.10;;;24.10;92.90;;;;;;5097511;28;20892;-68
2023/07/06 12:40:46;;;;;;;2.63;2.20;;;24.30;93.10;;;;;;5100537;28;20470;-69
2023/07/06 12:43:26;;;;;;;2.43;1.57;;;24.00;92.70;;;;;;5090101;28;20423;-69
2023/07/06 12:45:53;;;;;;;7.00;2.00;;;24.30;93.40;;;;;;5098229;28;20415;-70
2023/07/06 12:48:24;;;;;;;2.07;1.80;;;23.40;93.00;;;;;;5095287;28;20509;-70
2023/07/06 12:50:52;;;;;;;2.03;1.53;;;23.30;93.80;;;;;;5079097;28;20518;-68
2023/07/06 12:53:38;;;;;;;4.93;2.77;;;22.70;93.60;;;;;;5085514;28;20408;-68
2023/07/06 12:56:16;;;;;;;7.17;4.50;;;23.20;93.80;;;;;;5102077;28;20400;-69
2023/07/06 12:58:57;;;;;;;12.53;9.37;;;23.80;93.80;;;;;;5092340;28;20441;-69
2023/07/06 13:01:30;;;;;;;2.17;2.00;;;23.70;93.50;;;;;;5092851;28;20486;-69
2023/07/06 13:04:07;;;;;;;1.23;1.13;;;23.80;92.00;;;;;;5094080;28;20422;-69